Time;durP1;ratioP1;P1;durP2;ratioP2;P2;SDS_P1;SDS_P2;PMS_P1;PMS_P2;Temp;Humidity;BMP_temperature;BMP_pressure;BME280_temperature;BME280_humidity;BME280_pressure;Samples;Min_cycle;Max_cycle;Signal;HPM_P1;HPM_P2
2022/07/30 00:00:42;;;;;;;11.27;5.83;;;;;;;22.09;58.45;97477.91;5039769;28;20210;-70
2022/07/30 00:03:07;;;;;;;6.83;5.20;;;;;;;22.12;58.63;97481.97;5039806;28;20191;-69
2022/07/30 00:05:33;;;;;;;6.90;5.10;;;;;;;22.05;58.42;97483.91;5044258;28;20183;-69
2022/07/30 00:07:58;;;;;;;7.17;5.93;;;;;;;22.01;58.58;97480.03;5016697;28;20553;-70
2022/07/30 00:10:24;;;;;;;10.77;5.40;;;;;;;21.92;58.94;97484.81;5024449;28;20211;-70
2022/07/30 00:12:50;;;;;;;7.70;5.10;;;;;;;21.89;58.69;97483.41;5028798;28;20190;-70
2022/07/30 00:15:15;;;;;;;6.87;4.77;;;;;;;21.85;58.37;97486.75;5024907;28;20189;-70
2022/07/30 00:17:41;;;;;;;4.23;3.83;;;;;;;21.78;58.22;97492.94;5034999;28;20499;-70
2022/07/30 00:20:06;;;;;;;11.73;4.40;;;;;;;21.65;58.75;97487.69;5025568;28;20354;-69
2022/07/30 00:22:32;;;;;;;5.40;4.23;;;;;;;21.67;58.75;97490.16;5036384;28;20197;-68
2022/07/30 00:24:57;;;;;;;6.00;4.13;;;;;;;21.71;58.29;97494.00;5026559;28;20331;-69
2022/07/30 00:27:23;;;;;;;5.20;4.70;;;;;;;21.76;57.75;97491.53;5028005;28;20271;-69
2022/07/30 00:29:49;;;;;;;4.50;4.10;;;;;;;21.79;58.26;97493.75;5030377;28;20612;-69
2022/07/30 00:32:15;;;;;;;8.20;4.87;;;;;;;21.80;57.55;97490.03;5026323;28;20254;-70
2022/07/30 00:34:40;;;;;;;8.10;5.77;;;;;;;21.81;57.60;97491.66;5028902;28;20429;-69
2022/07/30 00:37:05;;;;;;;8.47;5.87;;;;;;;21.83;57.76;97494.94;5032997;28;20647;-69
2022/07/30 00:39:31;;;;;;;5.67;5.07;;;;;;;21.85;57.77;97487.53;5029474;28;20268;-69
2022/07/30 00:41:59;;;;;;;4.70;4.30;;;;;;;21.78;57.76;97492.13;5035106;28;20196;-68
2022/07/30 00:44:26;;;;;;;9.97;4.20;;;;;;;21.80;57.89;97492.69;5038486;28;20256;-69
2022/07/30 00:46:52;;;;;;;4.10;3.80;;;;;;;21.78;57.29;97486.78;5034680;28;20940;-68
2022/07/30 00:49:17;;;;;;;5.97;4.77;;;;;;;21.71;57.45;97492.19;5042033;28;20460;-69
2022/07/30 00:51:43;;;;;;;8.10;4.50;;;;;;;21.69;57.72;97488.91;5042288;28;20185;-70
2022/07/30 00:54:09;;;;;;;6.33;3.83;;;;;;;21.71;58.25;97488.69;5037807;28;20215;-70
2022/07/30 00:56:34;;;;;;;6.50;4.20;;;;;;;21.74;58.25;97485.59;5040916;28;20646;-68
2022/07/30 00:58:59;;;;;;;4.77;4.23;;;;;;;21.75;58.04;97484.56;5037292;28;20224;-69
2022/07/30 01:01:25;;;;;;;5.17;4.07;;;;;;;21.75;57.83;97476.56;5039384;28;20179;-69
2022/07/30 01:03:50;;;;;;;4.63;4.23;;;;;;;21.77;57.34;97490.50;5036301;28;20182;-69
2022/07/30 01:06:16;;;;;;;5.10;4.50;;;;;;;21.80;57.39;97500.69;5029122;28;20188;-68
2022/07/30 01:08:44;;;;;;;6.43;4.10;;;;;;;21.82;56.92;97497.84;5031343;28;20185;-68
2022/07/30 01:11:10;;;;;;;11.03;4.87;;;;;;;21.85;57.02;97500.06;5023457;28;20184;-69
2022/07/30 01:13:36;;;;;;;8.73;5.10;;;;;;;21.84;57.52;97504.59;5042245;28;20425;-68
2022/07/30 01:16:01;;;;;;;5.67;4.23;;;;;;;21.89;57.71;97503.91;5040180;28;20564;-69
2022/07/30 01:19:47;;;;;;;8.57;4.90;;;;;;;21.94;57.09;97506.75;5043426;28;20264;-69
2022/07/30 01:21:14;;;;;;;6.37;4.60;;;;;;;21.92;57.08;97507.00;5035121;28;20666;-69
2022/07/30 01:23:43;;;;;;;4.70;4.20;;;;;;;21.97;57.28;97502.84;5041185;28;20425;-69
2022/07/30 01:26:10;;;;;;;5.70;4.00;;;;;;;22.01;57.11;97506.72;5035585;28;20431;-68
2022/07/30 01:28:38;;;;;;;5.40;4.33;;;;;;;21.98;57.31;97507.97;5035564;28;20458;-68
2022/07/30 01:31:05;;;;;;;10.57;5.17;;;;;;;21.97;58.02;97505.50;5031510;28;20483;-69
2022/07/30 01:33:31;;;;;;;7.73;4.50;;;;;;;21.93;58.60;97505.94;5038292;28;20951;-68
2022/07/30 01:35:58;;;;;;;6.17;4.67;;;;;;;21.79;58.41;97512.44;5035460;28;20749;-68
2022/07/30 01:38:26;;;;;;;5.77;4.57;;;;;;;21.73;59.12;97523.97;5034115;28;20447;-70
2022/07/30 01:40:53;;;;;;;6.47;4.43;;;;;;;21.78;58.78;97524.94;5032764;28;20445;-69
2022/07/30 01:43:19;;;;;;;5.53;4.97;;;;;;;21.81;58.87;97523.69;5046035;28;20789;-69
2022/07/30 01:45:47;;;;;;;7.13;4.40;;;;;;;21.81;59.17;97517.53;5035887;28;20441;-69
2022/07/30 01:48:14;;;;;;;6.00;4.47;;;;;;;21.86;58.97;97520.38;5037115;28;20433;-69
2022/07/30 01:50:43;;;;;;;8.23;4.60;;;;;;;21.82;58.69;97519.97;5026325;28;20469;-69
2022/07/30 01:53:08;;;;;;;7.00;4.77;;;;;;;21.74;59.28;97525.59;5036453;28;20948;-69
2022/07/30 01:55:36;;;;;;;5.77;5.17;;;;;;;21.76;59.45;97531.53;5029545;28;20418;-70
2022/07/30 01:58:03;;;;;;;5.40;4.83;;;;;;;21.68;59.57;97529.94;5036555;28;20175;-69
2022/07/30 02:00:30;;;;;;;5.07;4.20;;;;;;;21.71;59.76;97529.53;5037698;28;20454;-69
2022/07/30 02:02:56;;;;;;;4.70;4.30;;;;;;;21.66;59.62;97534.66;5036563;28;20940;-69
2022/07/30 02:05:22;;;;;;;4.50;4.10;;;;;;;21.70;59.45;97535.88;5022014;28;20921;-69
2022/07/30 02:07:52;;;;;;;7.13;4.43;;;;;;;21.65;59.25;97530.38;5034656;28;20410;-68
2022/07/30 02:10:42;;;;;;;4.40;4.00;;;;;;;21.70;58.92;97522.53;5018665;28;20195;-68
2022/07/30 02:13:08;;;;;;;4.40;4.10;;;;;;;21.71;58.80;97528.69;5015041;28;20433;-67
2022/07/30 02:15:58;;;;;;;4.63;4.33;;;;;;;21.61;59.05;97530.00;5027093;28;20913;-69
2022/07/30 02:18:32;;;;;;;4.73;4.20;;;;;;;21.57;58.21;97525.28;5031817;28;20440;-69
2022/07/30 02:21:04;;;;;;;4.50;3.97;;;;;;;21.60;56.99;97520.34;5031613;28;20440;-68
2022/07/30 02:23:30;;;;;;;4.30;4.00;;;;;;;21.65;56.79;97526.91;5016596;28;20417;-68
2022/07/30 02:25:56;;;;;;;6.13;3.93;;;;;;;21.72;56.67;97522.31;5033236;28;20419;-68
2022/07/30 02:28:22;;;;;;;4.20;3.80;;;;;;;21.69;56.61;97530.75;5031185;28;20419;-68
2022/07/30 02:30:53;;;;;;;4.30;4.00;;;;;;;21.70;57.25;97524.38;5025707;28;20443;-69
2022/07/30 02:33:25;;;;;;;4.17;3.77;;;;;;;21.69;57.19;97523.56;5032729;28;20667;-69
2022/07/30 02:35:51;;;;;;;7.23;4.60;;;;;;;21.67;57.60;97525.63;5031112;28;20417;-70
2022/07/30 02:38:18;;;;;;;7.80;3.80;;;;;;;21.68;58.20;97535.28;5034613;28;20439;-69
2022/07/30 02:40:44;;;;;;;4.30;3.90;;;;;;;21.67;57.74;97532.84;5033271;28;20450;-69
2022/07/30 02:43:10;;;;;;;6.30;4.07;;;;;;;21.46;58.50;97537.44;5033958;28;20428;-69
2022/07/30 02:45:36;;;;;;;4.37;3.97;;;;;;;21.39;58.71;97536.66;5022491;28;20471;-69
2022/07/30 02:48:07;;;;;;;5.30;4.47;;;;;;;21.26;58.62;97546.38;5047164;28;20505;-68
2022/07/30 02:50:33;;;;;;;6.93;4.07;;;;;;;21.25;59.14;97547.38;5026525;28;20960;-65
2022/07/30 02:53:01;;;;;;;4.83;4.30;;;;;;;21.29;58.80;97543.28;5045902;28;20476;-68
2022/07/30 02:55:29;;;;;;;5.73;3.87;;;;;;;21.28;58.69;97541.66;5042155;28;20774;-70
2022/07/30 02:57:55;;;;;;;6.17;4.30;;;;;;;21.27;59.00;97547.16;5047073;28;20433;-69
2022/07/30 03:00:22;;;;;;;4.47;3.90;;;;;;;21.25;58.83;97547.38;5041340;28;20462;-69
2022/07/30 03:02:48;;;;;;;5.33;4.37;;;;;;;21.23;59.00;97554.78;5043057;28;20550;-68
2022/07/30 03:05:14;;;;;;;8.57;5.03;;;;;;;21.23;58.97;97560.09;5048446;28;20425;-68
2022/07/30 03:07:40;;;;;;;4.70;4.07;;;;;;;21.18;59.12;97557.25;5041328;28;20262;-68
2022/07/30 03:10:06;;;;;;;5.07;4.00;;;;;;;21.11;59.02;97556.47;5040502;28;20210;-69
2022/07/30 03:12:33;;;;;;;9.00;4.10;;;;;;;21.11;58.45;97559.13;5043380;28;20433;-68
2022/07/30 03:14:59;;;;;;;3.90;3.60;;;;;;;21.13;58.55;97554.41;5045209;28;20446;-68
2022/07/30 03:17:26;;;;;;;5.00;4.50;;;;;;;21.12;57.92;97547.44;5042138;28;20508;-68
2022/07/30 03:19:52;;;;;;;5.70;4.23;;;;;;;21.11;57.89;97551.94;5035640;28;20220;-68
2022/07/30 03:22:19;;;;;;;4.77;4.37;;;;;;;21.13;57.54;97559.75;5047075;28;20468;-68
2022/07/30 03:24:46;;;;;;;7.20;4.27;;;;;;;21.13;57.58;97560.56;5037411;28;20421;-68
2022/07/30 03:27:12;;;;;;;4.93;4.03;;;;;;;21.09;57.28;97575.34;5038968;28;20418;-68
2022/07/30 03:29:39;;;;;;;4.60;4.20;;;;;;;21.13;57.12;97571.22;5020722;28;20454;-68
2022/07/30 03:32:05;;;;;;;4.40;4.00;;;;;;;21.11;57.06;97575.13;5034487;28;20941;-69
2022/07/30 03:34:33;;;;;;;6.20;4.20;;;;;;;21.14;57.23;97567.53;5043467;28;21046;-68
2022/07/30 03:37:02;;;;;;;5.87;4.37;;;;;;;21.15;57.33;97576.34;5037427;28;20425;-68
2022/07/30 03:39:28;;;;;;;5.50;4.17;;;;;;;21.10;57.50;97568.16;5043615;28;20466;-67
2022/07/30 03:41:54;;;;;;;5.00;4.50;;;;;;;21.06;57.18;97577.59;5045411;28;20417;-67
2022/07/30 03:44:20;;;;;;;5.90;4.43;;;;;;;20.97;57.37;97574.38;5048382;28;20414;-67
2022/07/30 03:46:49;;;;;;;8.30;4.80;;;;;;;21.01;57.51;97575.56;5039897;28;20414;-67
2022/07/30 03:49:15;;;;;;;4.47;4.00;;;;;;;21.02;57.50;97575.38;5041954;28;20530;-68
2022/07/30 03:51:41;;;;;;;4.83;4.43;;;;;;;21.07;57.43;97577.41;5049654;28;20430;-68
2022/07/30 03:54:08;;;;;;;5.00;4.20;;;;;;;21.06;56.97;97581.09;5043040;28;20446;-68
2022/07/30 03:56:34;;;;;;;5.37;4.47;;;;;;;20.94;57.30;97578.25;5041577;28;20224;-66
2022/07/30 03:59:01;;;;;;;8.20;4.17;;;;;;;20.95;58.17;97581.75;5044827;28;20467;-67
2022/07/30 04:01:26;;;;;;;5.27;4.57;;;;;;;20.96;58.03;97581.53;5033948;28;20418;-68
2022/07/30 04:03:52;;;;;;;6.67;4.80;;;;;;;20.90;57.88;97587.72;5046584;28;20417;-68
2022/07/30 04:06:17;;;;;;;4.50;4.10;;;;;;;20.87;58.32;97590.78;5035479;28;20654;-68
2022/07/30 04:08:42;;;;;;;5.30;4.20;;;;;;;20.83;58.17;97586.88;5050427;28;20180;-70
2022/07/30 04:11:08;;;;;;;4.60;4.20;;;;;;;20.74;58.50;97594.25;5043017;28;20176;-68
2022/07/30 04:13:33;;;;;;;7.93;5.00;;;;;;;20.69;58.35;97602.06;5039634;28;20210;-69
2022/07/30 04:16:22;;;;;;;4.87;4.40;;;;;;;20.65;58.63;97608.81;5034411;28;20180;-68
2022/07/30 04:18:50;;;;;;;6.80;4.63;;;;;;;20.61;58.86;97604.91;5031394;28;20213;-68
2022/07/30 04:21:17;;;;;;;6.40;4.07;;;;;;;20.64;58.89;97617.81;5043325;28;20770;-69
2022/07/30 04:23:43;;;;;;;4.70;4.30;;;;;;;20.69;58.91;97613.50;5034754;28;20462;-68
2022/07/30 04:26:08;;;;;;;4.83;4.30;;;;;;;20.73;59.02;97613.91;5045076;28;20949;-68
2022/07/30 04:28:35;;;;;;;5.50;4.30;;;;;;;20.74;58.70;97620.06;5043427;28;20756;-68
2022/07/30 04:31:02;;;;;;;5.70;5.10;;;;;;;20.74;58.68;97617.41;5035974;28;20258;-68
2022/07/30 04:33:28;;;;;;;5.83;4.77;;;;;;;20.71;59.06;97616.78;5034364;28;20513;-68
2022/07/30 04:35:53;;;;;;;7.03;4.70;;;;;;;20.75;58.84;97624.41;5037199;28;20498;-68
2022/07/30 04:38:19;;;;;;;6.93;5.20;;;;;;;20.74;58.93;97631.53;5034588;28;20237;-68
2022/07/30 04:40:44;;;;;;;4.93;4.50;;;;;;;20.67;59.29;97628.06;5043278;28;20223;-68
2022/07/30 04:43:10;;;;;;;7.80;5.03;;;;;;;20.63;59.83;97634.81;5046079;28;20180;-67
2022/07/30 04:45:38;;;;;;;9.70;4.27;;;;;;;20.61;59.90;97628.88;5035814;28;20179;-68
2022/07/30 04:48:03;;;;;;;6.20;4.70;;;;;;;20.52;59.67;97633.63;5046499;28;20559;-68
2022/07/30 04:50:29;;;;;;;5.47;4.97;;;;;;;20.59;60.21;97637.09;5042982;28;20438;-69
2022/07/30 04:52:55;;;;;;;5.37;4.90;;;;;;;20.64;59.70;97634.63;5044168;28;20176;-68
2022/07/30 04:55:21;;;;;;;6.83;4.27;;;;;;;20.70;59.75;97647.13;5040003;28;20259;-68
2022/07/30 04:57:48;;;;;;;5.53;4.90;;;;;;;20.79;59.65;97644.28;5047066;28;20471;-68
2022/07/30 05:00:14;;;;;;;7.60;4.87;;;;;;;20.84;59.56;97642.63;5034639;28;20990;-68
2022/07/30 05:02:40;;;;;;;6.00;5.07;;;;;;;20.89;59.96;97647.34;5035499;28;20490;-67
2022/07/30 05:05:07;;;;;;;6.17;4.53;;;;;;;20.96;60.00;97645.47;5045078;28;20182;-68
2022/07/30 05:07:33;;;;;;;6.27;4.70;;;;;;;20.98;60.12;97647.94;5043175;28;20475;-68
2022/07/30 05:09:58;;;;;;;6.10;4.60;;;;;;;21.01;60.35;97642.16;5037001;28;20442;-68
2022/07/30 05:12:36;;;;;;;7.20;5.23;;;;;;;21.07;59.95;97651.16;5042851;28;20187;-69
2022/07/30 05:15:07;;;;;;;5.30;4.80;;;;;;;21.09;59.94;97649.94;5048116;28;20198;-69
2022/07/30 05:17:33;;;;;;;8.33;5.30;;;;;;;21.16;60.13;97647.28;5042591;28;20446;-67
2022/07/30 05:19:58;;;;;;;10.33;5.57;;;;;;;21.24;60.20;97654.19;5037595;28;21059;-68
2022/07/30 05:22:28;;;;;;;6.27;4.77;;;;;;;21.27;59.79;97656.44;5044151;28;20433;-68
2022/07/30 05:24:57;;;;;;;7.53;4.97;;;;;;;21.33;59.85;97658.28;5043755;28;20182;-68
2022/07/30 05:27:23;;;;;;;5.33;4.83;;;;;;;21.38;59.64;97654.97;5043977;28;20445;-69
2022/07/30 05:29:48;;;;;;;6.40;4.80;;;;;;;21.45;59.78;97655.75;5019923;28;20452;-69
2022/07/30 05:32:14;;;;;;;7.77;4.50;;;;;;;21.52;59.22;97659.22;5032906;28;20681;-69
2022/07/30 05:34:39;;;;;;;7.17;4.87;;;;;;;21.62;58.36;97654.28;5033222;28;20182;-68
2022/07/30 05:37:05;;;;;;;4.97;4.53;;;;;;;21.68;57.39;97659.78;5044272;28;20365;-68
2022/07/30 05:39:30;;;;;;;10.30;4.83;;;;;;;21.76;57.08;97662.22;5042775;28;20208;-68
2022/07/30 05:41:56;;;;;;;10.13;4.60;;;;;;;21.86;56.83;97665.25;5044740;28;20610;-68
2022/07/30 05:44:22;;;;;;;8.93;4.70;;;;;;;21.96;56.15;97664.78;5046535;28;20221;-68
2022/07/30 05:46:48;;;;;;;4.20;3.90;;;;;;;22.06;55.83;97664.28;5040515;28;20183;-68
2022/07/30 05:49:14;;;;;;;7.10;4.60;;;;;;;22.17;55.31;97666.31;5030143;28;20219;-68
2022/07/30 05:51:40;;;;;;;5.67;4.73;;;;;;;22.30;54.64;97660.03;5031863;28;20240;-69
2022/07/30 05:54:06;;;;;;;10.20;4.27;;;;;;;22.43;54.07;97655.66;5023668;28;20425;-68
2022/07/30 05:56:31;;;;;;;8.83;4.70;;;;;;;22.60;53.23;97664.78;5048423;28;20421;-69
2022/07/30 05:58:56;;;;;;;6.27;4.20;;;;;;;22.74;52.57;97665.47;5033854;28;20212;-68
2022/07/30 06:01:22;;;;;;;5.00;3.90;;;;;;;22.88;51.69;97663.47;5038845;28;20659;-68
2022/07/30 06:03:47;;;;;;;7.27;4.40;;;;;;;23.03;51.32;97668.47;5035558;28;20184;-68
2022/07/30 06:06:13;;;;;;;7.67;4.93;;;;;;;23.16;50.23;97668.34;5032063;28;20301;-67
2022/07/30 06:08:38;;;;;;;6.63;4.60;;;;;;;23.28;49.64;97665.75;5041118;28;20540;-68
2022/07/30 06:11:04;;;;;;;6.30;5.00;;;;;;;23.41;48.63;97658.63;5023310;28;20279;-68
2022/07/30 06:13:29;;;;;;;8.03;4.70;;;;;;;23.49;48.01;97666.34;5038152;28;20186;-68
2022/07/30 06:15:55;;;;;;;4.70;4.30;;;;;;;23.62;47.96;97666.19;5030327;28;20176;-68
2022/07/30 06:18:21;;;;;;;7.77;4.80;;;;;;;23.73;48.00;97667.28;5036147;28;20187;-68
2022/07/30 06:20:48;;;;;;;6.10;3.90;;;;;;;23.84;47.18;97676.41;5035226;28;20200;-68
2022/07/30 06:23:14;;;;;;;8.60;4.53;;;;;;;23.99;46.97;97673.34;5032337;28;20184;-68
2022/07/30 06:25:39;;;;;;;5.50;4.43;;;;;;;24.11;46.90;97676.06;5041015;28;20417;-69
2022/07/30 06:28:05;;;;;;;5.60;4.07;;;;;;;24.22;46.71;97674.44;5029184;28;20199;-68
2022/07/30 06:30:30;;;;;;;6.40;4.23;;;;;;;24.35;46.32;97674.22;5030550;28;20196;-68
2022/07/30 06:32:55;;;;;;;7.50;4.87;;;;;;;24.45;45.93;97672.84;5030488;28;20180;-70
2022/07/30 06:35:21;;;;;;;4.87;4.30;;;;;;;24.54;45.34;97674.97;5031413;28;20184;-67
2022/07/30 06:37:46;;;;;;;7.37;4.03;;;;;;;24.67;45.15;97663.22;5025428;28;20683;-68
2022/07/30 06:40:12;;;;;;;8.83;4.73;;;;;;;24.80;45.46;97672.13;5026039;28;20214;-69
2022/07/30 06:42:37;;;;;;;6.70;4.83;;;;;;;24.94;45.58;97670.00;5046644;28;20179;-67
2022/07/30 06:45:04;;;;;;;5.70;4.20;;;;;;;25.05;44.21;97671.84;5025762;28;20185;-67
2022/07/30 06:47:30;;;;;;;5.90;4.30;;;;;;;25.20;44.50;97671.38;5029868;28;20183;-68
2022/07/30 06:49:55;;;;;;;5.80;4.27;;;;;;;25.30;43.94;97678.81;5042671;28;20516;-68
2022/07/30 06:52:21;;;;;;;6.67;4.50;;;;;;;25.35;43.84;97678.94;5049118;28;20518;-69
2022/07/30 06:54:49;;;;;;;9.07;5.40;;;;;;;25.47;43.26;97680.81;5038271;28;20672;-67
2022/07/30 06:57:15;;;;;;;4.77;4.37;;;;;;;25.55;43.09;97680.41;5023638;28;20278;-68
2022/07/30 06:59:41;;;;;;;5.90;4.33;;;;;;;25.63;42.91;97687.28;5035805;28;20843;-69
2022/07/30 07:02:07;;;;;;;7.13;4.37;;;;;;;25.71;42.79;97689.56;5020533;28;20419;-67
2022/07/30 07:04:32;;;;;;;11.70;5.37;;;;;;;25.79;42.34;97689.22;5023228;28;20582;-67
2022/07/30 07:06:58;;;;;;;6.23;4.93;;;;;;;25.84;41.92;97689.28;5020845;28;20419;-68
2022/07/30 07:09:24;;;;;;;12.27;4.47;;;;;;;25.92;42.48;97688.09;5043709;28;20595;-68
2022/07/30 07:11:49;;;;;;;11.80;4.90;;;;;;;26.04;41.65;97691.56;5040736;28;20183;-68
2022/07/30 07:14:15;;;;;;;3.80;3.40;;;;;;;26.15;41.80;97684.53;5037349;28;20426;-68
2022/07/30 07:16:40;;;;;;;7.30;4.93;;;;;;;26.21;40.80;97694.28;5037835;28;20262;-68
2022/07/30 07:19:06;;;;;;;10.73;4.67;;;;;;;26.29;39.78;97690.41;5033425;28;20769;-69
2022/07/30 07:21:31;;;;;;;7.10;4.40;;;;;;;26.34;40.52;97690.50;5042799;28;20258;-69
2022/07/30 07:23:59;;;;;;;9.87;5.20;;;;;;;26.42;39.59;97689.28;5037925;28;20262;-68
2022/07/30 07:26:24;;;;;;;6.33;4.80;;;;;;;26.49;39.94;97683.75;5044608;28;20187;-70
2022/07/30 07:28:50;;;;;;;9.27;5.03;;;;;;;26.60;39.79;97698.16;5024237;28;20473;-71
2022/07/30 07:31:15;;;;;;;5.20;4.53;;;;;;;26.68;39.14;97685.13;5022460;28;20180;-69
2022/07/30 07:33:41;;;;;;;6.83;4.13;;;;;;;26.78;38.77;97687.19;5025774;28;20668;-69
2022/07/30 07:36:07;;;;;;;7.23;4.20;;;;;;;26.91;38.50;97691.41;5025570;28;20184;-69
2022/07/30 07:38:33;;;;;;;11.93;4.20;;;;;;;27.06;38.49;97690.00;5036476;28;20194;-69
2022/07/30 07:40:58;;;;;;;10.17;4.10;;;;;;;27.21;38.47;97684.03;5025763;28;20342;-69
2022/07/30 07:43:25;;;;;;;5.10;3.73;;;;;;;27.35;37.88;97685.25;5036599;28;20913;-68
2022/07/30 07:45:50;;;;;;;13.33;3.50;;;;;;;27.52;37.62;97689.81;5039930;28;20179;-69
2022/07/30 07:48:17;;;;;;;6.93;3.37;;;;;;;27.68;37.23;97688.94;5039233;28;20449;-69
2022/07/30 07:50:43;;;;;;;7.90;3.23;;;;;;;27.86;37.05;97695.03;5045493;28;20282;-69
2022/07/30 07:53:09;;;;;;;4.23;3.10;;;;;;;27.95;35.45;97687.31;5045507;28;20968;-69
2022/07/30 07:55:34;;;;;;;10.67;3.00;;;;;;;28.01;34.08;97679.03;5045245;28;20669;-69
2022/07/30 07:58:00;;;;;;;3.97;2.90;;;;;;;28.17;34.81;97693.50;5049647;28;20190;-68
2022/07/30 08:00:25;;;;;;;6.13;2.67;;;;;;;28.28;34.21;97690.91;5044889;28;20203;-69
2022/07/30 08:02:51;;;;;;;6.93;3.20;;;;;;;28.30;33.41;97692.28;5011520;28;20638;-69
2022/07/30 08:05:16;;;;;;;5.30;2.73;;;;;;;28.43;33.22;97684.84;5030143;28;20191;-69
2022/07/30 08:07:42;;;;;;;5.90;2.90;;;;;;;28.51;33.52;97692.44;5026874;28;20270;-68
2022/07/30 08:10:09;;;;;;;6.73;3.30;;;;;;;28.57;32.61;97699.53;5031079;28;20214;-69
2022/07/30 08:12:35;;;;;;;12.53;3.60;;;;;;;28.66;32.51;97695.28;5042070;28;20419;-68
2022/07/30 08:15:01;;;;;;;11.00;2.93;;;;;;;28.74;31.81;97693.19;5038469;28;20426;-68
2022/07/30 08:17:27;;;;;;;5.23;2.73;;;;;;;28.76;31.71;97704.53;5042337;28;20191;-68
2022/07/30 08:19:53;;;;;;;4.87;3.03;;;;;;;28.71;31.63;97699.09;5035347;28;20479;-69
2022/07/30 08:22:18;;;;;;;3.40;2.93;;;;;;;28.75;32.58;97700.19;5045936;28;20234;-69
2022/07/30 08:24:43;;;;;;;3.93;2.93;;;;;;;28.72;32.63;97695.31;5016506;28;20181;-68
2022/07/30 08:27:09;;;;;;;7.33;3.10;;;;;;;28.60;32.39;97699.00;5018316;28;20183;-68
2022/07/30 08:29:35;;;;;;;6.70;3.70;;;;;;;28.63;32.03;97693.09;5016705;28;20349;-69
2022/07/30 08:32:00;;;;;;;4.00;3.10;;;;;;;28.78;32.46;97694.31;5037984;28;20186;-68
2022/07/30 08:34:27;;;;;;;5.50;2.80;;;;;;;28.85;32.68;97689.50;5037211;28;20262;-69
2022/07/30 08:36:52;;;;;;;10.30;3.27;;;;;;;28.93;32.66;97691.72;5037871;28;20285;-68
2022/07/30 08:39:17;;;;;;;5.23;2.70;;;;;;;28.91;31.82;97688.47;5041651;28;20465;-68
2022/07/30 08:41:43;;;;;;;4.33;2.47;;;;;;;29.05;31.74;97693.41;5036271;28;20312;-68
2022/07/30 08:44:10;;;;;;;5.10;3.30;;;;;;;29.11;30.17;97695.06;5042194;28;20186;-69
2022/07/30 08:46:41;;;;;;;4.30;2.77;;;;;;;29.24;31.13;97699.16;5039479;28;20413;-69
2022/07/30 08:49:07;;;;;;;6.63;2.87;;;;;;;29.28;30.78;97698.38;5033240;28;20897;-68
2022/07/30 08:51:34;;;;;;;5.90;3.00;;;;;;;29.45;31.08;97702.81;5050501;28;20505;-69
2022/07/30 08:54:00;;;;;;;7.87;2.80;;;;;;;29.46;30.58;97704.44;5042875;28;20176;-69
2022/07/30 08:56:27;;;;;;;3.53;2.70;;;;;;;29.42;30.62;97703.34;5047716;28;20418;-68
2022/07/30 08:58:52;;;;;;;4.00;2.67;;;;;;;29.15;31.10;97698.03;5044914;28;20458;-69
2022/07/30 09:01:17;;;;;;;8.37;2.60;;;;;;;29.08;30.85;97700.97;5032799;28;20435;-69
2022/07/30 09:03:43;;;;;;;4.30;2.30;;;;;;;29.00;31.71;97699.56;5048021;28;20179;-68
2022/07/30 09:06:08;;;;;;;3.20;2.90;;;;;;;28.81;31.58;97696.47;5041393;28;20188;-69
2022/07/30 09:08:34;;;;;;;8.30;2.87;;;;;;;29.00;31.88;97704.13;5050195;28;20254;-69
2022/07/30 09:10:59;;;;;;;3.40;3.10;;;;;;;29.27;31.96;97698.66;5041302;28;20675;-69
2022/07/30 09:13:34;;;;;;;8.57;3.90;;;;;;;29.48;31.44;97698.75;5041946;28;20175;-69
2022/07/30 09:16:00;;;;;;;4.90;2.80;;;;;;;29.42;31.43;97700.63;5044203;28;20190;-69
2022/07/30 09:18:35;;;;;;;5.43;2.90;;;;;;;29.48;30.93;97696.06;5041874;28;20426;-68
2022/07/30 09:21:13;;;;;;;4.93;3.40;;;;;;;29.68;29.89;97696.13;5044697;28;20953;-69
2022/07/30 09:23:39;;;;;;;5.27;2.37;;;;;;;29.94;29.44;97703.50;5023653;28;20432;-68
2022/07/30 09:26:04;;;;;;;6.33;2.57;;;;;;;30.18;29.64;97699.25;5046541;28;20418;-68
2022/07/30 09:28:32;;;;;;;5.80;2.53;;;;;;;30.36;29.13;97705.25;5042457;28;20190;-68
2022/07/30 09:30:58;;;;;;;4.63;2.70;;;;;;;30.57;28.17;97710.66;5039593;28;20670;-68
2022/07/30 09:33:41;;;;;;;5.50;2.40;;;;;;;30.72;28.44;97697.16;5044393;28;20427;-68
2022/07/30 09:36:12;;;;;;;3.87;2.30;;;;;;;30.68;28.09;97696.06;5037314;28;20425;-69
2022/07/30 09:38:47;;;;;;;6.77;2.40;;;;;;;30.41;28.63;97702.50;5046509;28;20448;-70
2022/07/30 09:41:15;;;;;;;5.90;3.13;;;;;;;30.18;29.13;97699.25;5042472;28;20959;-68
2022/07/30 09:43:49;;;;;;;8.67;2.53;;;;;;;30.04;28.85;97698.16;5047289;28;20482;-70
2022/07/30 09:46:15;;;;;;;4.23;2.33;;;;;;;30.23;28.79;97695.75;5043473;28;20421;-70
2022/07/30 09:48:41;;;;;;;3.20;2.53;;;;;;;30.41;28.34;97697.09;5035032;28;20798;-69
2022/07/30 09:51:06;;;;;;;2.70;2.50;;;;;;;30.59;27.27;97697.69;5044853;28;20450;-68
2022/07/30 09:53:32;;;;;;;4.50;2.40;;;;;;;30.71;27.57;97695.53;5045423;28;20175;-69
2022/07/30 09:55:58;;;;;;;3.97;2.23;;;;;;;30.85;27.35;97694.97;5044851;28;20187;-68
2022/07/30 09:58:36;;;;;;;4.17;2.10;;;;;;;31.04;27.67;97693.28;5047068;28;20342;-68
2022/07/30 10:01:02;;;;;;;3.03;2.27;;;;;;;31.13;26.75;97695.50;5034791;28;20207;-68
2022/07/30 10:03:27;;;;;;;5.77;1.83;;;;;;;31.29;26.38;97698.94;5048184;28;20421;-67
2022/07/30 10:05:57;;;;;;;4.70;2.23;;;;;;;31.48;25.72;97696.44;5041079;28;20205;-67
2022/07/30 10:08:43;;;;;;;5.10;1.90;;;;;;;31.75;25.97;97684.44;5047963;28;20182;-69
2022/07/30 10:11:14;;;;;;;2.33;2.00;;;;;;;31.80;26.66;97692.53;5027234;28;20446;-69
2022/07/30 10:13:40;;;;;;;1.90;1.77;;;;;;;31.75;26.15;97687.94;5028381;28;20428;-68
2022/07/30 10:16:06;;;;;;;9.13;2.27;;;;;;;31.60;26.49;97691.53;5034750;28;20914;-68
2022/07/30 10:18:32;;;;;;;3.20;2.03;;;;;;;31.41;26.60;97694.84;5042926;28;20433;-69
2022/07/30 10:21:00;;;;;;;4.57;2.00;;;;;;;31.28;26.58;97690.00;5037944;28;20200;-68
2022/07/30 10:23:28;;;;;;;5.80;2.20;;;;;;;31.38;26.69;97681.84;5034030;28;20460;-68
2022/07/30 10:25:57;;;;;;;6.73;1.80;;;;;;;31.66;26.57;97679.56;5044427;28;20415;-70
2022/07/30 10:28:23;;;;;;;6.30;2.27;;;;;;;31.65;26.02;97680.63;5036754;28;20438;-68
2022/07/30 10:30:49;;;;;;;4.27;1.80;;;;;;;31.49;26.32;97687.25;5031669;28;20460;-68
2022/07/30 10:33:16;;;;;;;3.60;1.90;;;;;;;31.41;26.39;97677.78;5037595;28;20509;-69
2022/07/30 10:35:42;;;;;;;2.07;1.70;;;;;;;31.62;26.20;97672.28;5037964;28;20514;-69
2022/07/30 10:38:10;;;;;;;2.93;1.90;;;;;;;31.82;25.60;97677.59;5025430;28;20435;-69
2022/07/30 10:41:00;;;;;;;4.13;1.90;;;;;;;31.89;25.27;97671.88;5039553;28;20742;-68
2022/07/30 10:43:43;;;;;;;2.80;2.00;;;;;;;32.10;25.39;97677.19;5039772;28;20417;-69
2022/07/30 10:46:20;;;;;;;2.70;1.90;;;;;;;32.01;25.08;97671.53;5043624;28;20904;-69
2022/07/30 10:48:46;;;;;;;6.10;1.70;;;;;;;32.10;25.35;97674.47;5035994;28;20479;-69
2022/07/30 10:51:11;;;;;;;11.20;1.97;;;;;;;31.99;25.30;97671.81;5049078;28;20454;-70
2022/07/30 10:53:39;;;;;;;5.53;1.90;;;;;;;31.92;25.72;97675.94;5048093;28;20214;-68
2022/07/30 10:56:16;;;;;;;1.90;1.43;;;;;;;31.93;25.92;97675.66;5048504;28;20191;-69
2022/07/30 10:58:57;;;;;;;2.30;1.67;;;;;;;31.98;25.74;97659.38;5048631;28;21006;-68
2022/07/30 11:01:22;;;;;;;2.00;1.77;;;;;;;32.11;25.00;97657.13;5045019;28;20994;-69
2022/07/30 11:04:16;;;;;;;2.13;1.90;;;;;;;31.82;25.03;97657.84;5033018;28;20426;-69
2022/07/30 11:06:41;;;;;;;5.53;1.73;;;;;;;31.62;25.56;97673.09;5030859;28;20254;-68
2022/07/30 11:09:36;;;;;;;4.43;1.90;;;;;;;31.39;26.13;97677.25;5031907;28;20443;-68
2022/07/30 11:12:02;;;;;;;3.30;1.83;;;;;;;31.16;25.95;97673.25;5042210;28;20183;-69
2022/07/30 11:15:03;;;;;;;2.17;1.90;;;;;;;30.90;25.74;97681.41;5025744;28;20784;-69
2022/07/30 11:18:08;;;;;;;1.93;1.70;;;;;;;30.89;25.99;97675.22;5009364;28;20435;-69
2022/07/30 11:20:34;;;;;;;2.50;2.20;;;;;;;31.13;26.22;97669.22;5037650;28;20560;-69
2022/07/30 11:23:17;;;;;;;3.97;3.20;;;;;;;31.47;25.58;97673.16;5025514;28;20423;-68
2022/07/30 11:25:43;;;;;;;2.00;1.67;;;;;;;31.41;25.45;97669.66;5033507;28;20425;-69
2022/07/30 11:28:44;;;;;;;4.73;2.10;;;;;;;31.35;25.70;97662.63;5027979;28;20427;-68
2022/07/30 11:31:31;;;;;;;2.37;1.97;;;;;;;31.49;25.23;97665.56;5016118;28;20236;-69
2022/07/30 11:34:18;;;;;;;1.93;1.67;;;;;;;31.73;24.67;97654.09;5032486;28;20419;-68